sensor_id;sensor_type;location;lat;lon;timestamp;temperature;humidity
71994;DHT22;59861;50.268;8.648;2023-03-01T00:01:18;15.80;50.90
71994;DHT22;59861;50.268;8.648;2023-03-01T00:03:45;15.80;50.90
71994;DHT22;59861;50.268;8.648;2023-03-01T00:06:12;15.80;50.90
71994;DHT22;59861;50.268;8.648;2023-03-01T00:08:39;15.80;50.90
71994;DHT22;59861;50.268;8.648;2023-03-01T00:11:07;15.80;50.90
71994;DHT22;59861;50.268;8.648;2023-03-01T00:13:35;15.80;50.90
71994;DHT22;59861;50.268;8.648;2023-03-01T00:16:07;15.70;50.80
71994;DHT22;59861;50.268;8.648;2023-03-01T00:18:30;15.80;50.90
71994;DHT22;59861;50.268;8.648;2023-03-01T00:20:56;15.80;50.80
71994;DHT22;59861;50.268;8.648;2023-03-01T00:23:23;15.80;50.90
71994;DHT22;59861;50.268;8.648;2023-03-01T00:25:50;15.70;50.80
71994;DHT22;59861;50.268;8.648;2023-03-01T00:28:17;15.70;50.90
71994;DHT22;59861;50.268;8.648;2023-03-01T00:30:44;15.70;50.90
71994;DHT22;59861;50.268;8.648;2023-03-01T00:33:11;15.70;50.90
71994;DHT22;59861;50.268;8.648;2023-03-01T00:35:38;15.70;50.90
71994;DHT22;59861;50.268;8.648;2023-03-01T00:38:05;15.70;51.50
71994;DHT22;59861;50.268;8.648;2023-03-01T00:40:32;15.70;50.90
71994;DHT22;59861;50.268;8.648;2023-03-01T00:43:00;15.70;50.80
71994;DHT22;59861;50.268;8.648;2023-03-01T00:45:27;15.70;50.90
71994;DHT22;59861;50.268;8.648;2023-03-01T00:47:54;15.60;50.80
71994;DHT22;59861;50.268;8.648;2023-03-01T00:50:21;15.60;50.80
71994;DHT22;59861;50.268;8.648;2023-03-01T00:52:50;15.60;50.80
71994;DHT22;59861;50.268;8.648;2023-03-01T00:55:16;15.60;50.80
71994;DHT22;59861;50.268;8.648;2023-03-01T00:57:42;15.60;50.80
71994;DHT22;59861;50.268;8.648;2023-03-01T01:00:10;15.60;50.90
71994;DHT22;59861;50.268;8.648;2023-03-01T01:02:37;15.60;50.80
71994;DHT22;59861;50.268;8.648;2023-03-01T01:05:04;15.60;50.80
71994;DHT22;59861;50.268;8.648;2023-03-01T01:07:31;15.60;50.80
71994;DHT22;59861;50.268;8.648;2023-03-01T01:09:58;15.60;50.90
71994;DHT22;59861;50.268;8.648;2023-03-01T01:12:24;15.60;51.10
71994;DHT22;59861;50.268;8.648;2023-03-01T01:14:51;15.60;51.10
71994;DHT22;59861;50.268;8.648;2023-03-01T01:17:18;15.50;51.20
71994;DHT22;59861;50.268;8.648;2023-03-01T01:19:45;15.50;51.30
71994;DHT22;59861;50.268;8.648;2023-03-01T01:22:12;15.50;51.30
71994;DHT22;59861;50.268;8.648;2023-03-01T01:24:38;15.50;51.30
71994;DHT22;59861;50.268;8.648;2023-03-01T01:27:05;15.50;51.40
71994;DHT22;59861;50.268;8.648;2023-03-01T01:29:33;15.50;51.40
71994;DHT22;59861;50.268;8.648;2023-03-01T01:31:59;15.50;51.30
71994;DHT22;59861;50.268;8.648;2023-03-01T01:34:26;15.50;51.30
71994;DHT22;59861;50.268;8.648;2023-03-01T01:36:53;15.50;51.30
71994;DHT22;59861;50.268;8.648;2023-03-01T01:39:20;15.50;51.30
71994;DHT22;59861;50.268;8.648;2023-03-01T01:41:48;15.50;51.20
71994;DHT22;59861;50.268;8.648;2023-03-01T01:44:16;15.50;51.20
71994;DHT22;59861;50.268;8.648;2023-03-01T01:46:57;15.50;51.70
71994;DHT22;59861;50.268;8.648;2023-03-01T01:49:25;15.50;51.10
71994;DHT22;59861;50.268;8.648;2023-03-01T01:51:57;15.50;51.00
71994;DHT22;59861;50.268;8.648;2023-03-01T01:54:29;15.50;51.00
71994;DHT22;59861;50.268;8.648;2023-03-01T01:56:53;15.50;50.90
71994;DHT22;59861;50.268;8.648;2023-03-01T01:59:20;15.60;50.90
71994;DHT22;59861;50.268;8.648;2023-03-01T02:01:49;15.50;50.70
71994;DHT22;59861;50.268;8.648;2023-03-01T02:04:16;15.50;50.80
71994;DHT22;59861;50.268;8.648;2023-03-01T02:07:18;15.50;50.70
71994;DHT22;59861;50.268;8.648;2023-03-01T02:09:17;15.60;50.70
71994;DHT22;59861;50.268;8.648;2023-03-01T02:11:45;15.60;50.70
71994;DHT22;59861;50.268;8.648;2023-03-01T02:14:12;15.60;50.60
71994;DHT22;59861;50.268;8.648;2023-03-01T02:16:39;15.50;50.70
71994;DHT22;59861;50.268;8.648;2023-03-01T02:19:07;15.50;50.70
71994;DHT22;59861;50.268;8.648;2023-03-01T02:21:43;15.50;50.80
71994;DHT22;59861;50.268;8.648;2023-03-01T02:26:42;15.50;50.60
71994;DHT22;59861;50.268;8.648;2023-03-01T02:29:09;15.50;50.60
71994;DHT22;59861;50.268;8.648;2023-03-01T02:31:36;15.50;50.70
71994;DHT22;59861;50.268;8.648;2023-03-01T02:34:10;15.50;50.60
71994;DHT22;59861;50.268;8.648;2023-03-01T02:36:50;15.50;50.60
71994;DHT22;59861;50.268;8.648;2023-03-01T02:39:28;15.50;50.70
71994;DHT22;59861;50.268;8.648;2023-03-01T02:41:55;15.50;50.60
71994;DHT22;59861;50.268;8.648;2023-03-01T02:44:23;15.50;50.70
71994;DHT22;59861;50.268;8.648;2023-03-01T02:46:51;15.50;50.50
71994;DHT22;59861;50.268;8.648;2023-03-01T02:49:19;15.50;50.60
71994;DHT22;59861;50.268;8.648;2023-03-01T02:52:01;15.50;50.40
71994;DHT22;59861;50.268;8.648;2023-03-01T02:54:25;15.50;50.40
71994;DHT22;59861;50.268;8.648;2023-03-01T02:56:52;15.50;50.40
71994;DHT22;59861;50.268;8.648;2023-03-01T02:59:20;15.50;50.40
71994;DHT22;59861;50.268;8.648;2023-03-01T03:01:48;15.50;50.40
71994;DHT22;59861;50.268;8.648;2023-03-01T03:04:15;15.50;50.30
71994;DHT22;59861;50.268;8.648;2023-03-01T03:06:47;15.50;50.40
71994;DHT22;59861;50.268;8.648;2023-03-01T03:09:14;15.50;50.40
71994;DHT22;59861;50.268;8.648;2023-03-01T03:11:41;15.50;50.40
71994;DHT22;59861;50.268;8.648;2023-03-01T03:14:09;15.50;50.40
71994;DHT22;59861;50.268;8.648;2023-03-01T03:16:40;15.40;50.30
71994;DHT22;59861;50.268;8.648;2023-03-01T03:19:07;15.50;50.30
71994;DHT22;59861;50.268;8.648;2023-03-01T03:21:34;15.50;50.20
71994;DHT22;59861;50.268;8.648;2023-03-01T03:24:01;15.50;51.10
71994;DHT22;59861;50.268;8.648;2023-03-01T03:26:28;15.40;50.20
71994;DHT22;59861;50.268;8.648;2023-03-01T03:28:55;15.40;50.10
71994;DHT22;59861;50.268;8.648;2023-03-01T03:31:22;15.40;50.10
71994;DHT22;59861;50.268;8.648;2023-03-01T03:33:49;15.50;50.20
71994;DHT22;59861;50.268;8.648;2023-03-01T03:36:17;15.40;50.00
71994;DHT22;59861;50.268;8.648;2023-03-01T03:38:44;15.40;50.10
71994;DHT22;59861;50.268;8.648;2023-03-01T03:41:12;15.40;50.10
71994;DHT22;59861;50.268;8.648;2023-03-01T03:43:39;15.40;50.10
71994;DHT22;59861;50.268;8.648;2023-03-01T03:46:08;15.40;50.10
71994;DHT22;59861;50.268;8.648;2023-03-01T03:48:36;15.40;50.30
71994;DHT22;59861;50.268;8.648;2023-03-01T03:51:04;15.40;50.40
71994;DHT22;59861;50.268;8.648;2023-03-01T03:53:34;15.40;50.50
71994;DHT22;59861;50.268;8.648;2023-03-01T03:56:01;15.30;50.50
71994;DHT22;59861;50.268;8.648;2023-03-01T03:58:27;15.30;50.60
71994;DHT22;59861;50.268;8.648;2023-03-01T04:00:55;15.20;50.70
71994;DHT22;59861;50.268;8.648;2023-03-01T04:03:23;15.20;50.80
71994;DHT22;59861;50.268;8.648;2023-03-01T04:05:50;15.30;50.80
71994;DHT22;59861;50.268;8.648;2023-03-01T04:08:20;15.20;50.80
71994;DHT22;59861;50.268;8.648;2023-03-01T04:10:49;15.30;50.80
71994;DHT22;59861;50.268;8.648;2023-03-01T04:13:20;15.20;50.80
71994;DHT22;59861;50.268;8.648;2023-03-01T04:15:50;15.20;50.80
71994;DHT22;59861;50.268;8.648;2023-03-01T04:18:18;15.30;50.80
71994;DHT22;59861;50.268;8.648;2023-03-01T04:20:45;15.30;50.80
71994;DHT22;59861;50.268;8.648;2023-03-01T04:23:14;15.30;50.70
71994;DHT22;59861;50.268;8.648;2023-03-01T04:25:48;15.30;50.60
71994;DHT22;59861;50.268;8.648;2023-03-01T04:28:11;15.30;50.60
71994;DHT22;59861;50.268;8.648;2023-03-01T04:30:38;15.30;50.40
71994;DHT22;59861;50.268;8.648;2023-03-01T04:33:06;15.30;50.40
71994;DHT22;59861;50.268;8.648;2023-03-01T04:35:33;15.30;50.40
71994;DHT22;59861;50.268;8.648;2023-03-01T04:38:01;15.30;50.40
71994;DHT22;59861;50.268;8.648;2023-03-01T04:40:27;15.30;50.40
71994;DHT22;59861;50.268;8.648;2023-03-01T04:42:54;15.30;50.20
71994;DHT22;59861;50.268;8.648;2023-03-01T04:45:21;15.40;50.00
71994;DHT22;59861;50.268;8.648;2023-03-01T04:47:48;15.40;50.30
71994;DHT22;59861;50.268;8.648;2023-03-01T04:50:17;15.30;50.20
71994;DHT22;59861;50.268;8.648;2023-03-01T04:52:46;15.30;50.30
71994;DHT22;59861;50.268;8.648;2023-03-01T04:55:13;15.30;50.30
71994;DHT22;59861;50.268;8.648;2023-03-01T04:57:40;15.30;50.30
71994;DHT22;59861;50.268;8.648;2023-03-01T05:00:08;15.30;50.30
71994;DHT22;59861;50.268;8.648;2023-03-01T05:02:37;15.30;50.30
71994;DHT22;59861;50.268;8.648;2023-03-01T05:05:04;15.30;50.40
71994;DHT22;59861;50.268;8.648;2023-03-01T05:07:31;15.30;50.30
71994;DHT22;59861;50.268;8.648;2023-03-01T05:09:58;15.30;50.40
71994;DHT22;59861;50.268;8.648;2023-03-01T05:12:25;15.20;50.80
71994;DHT22;59861;50.268;8.648;2023-03-01T05:14:52;15.20;50.70
71994;DHT22;59861;50.268;8.648;2023-03-01T05:17:19;15.10;50.80
71994;DHT22;59861;50.268;8.648;2023-03-01T05:19:45;15.10;51.00
71994;DHT22;59861;50.268;8.648;2023-03-01T05:22:12;15.10;51.10
71994;DHT22;59861;50.268;8.648;2023-03-01T05:24:39;15.10;51.20
71994;DHT22;59861;50.268;8.648;2023-03-01T05:27:06;15.10;51.10
71994;DHT22;59861;50.268;8.648;2023-03-01T05:29:33;15.10;51.90
71994;DHT22;59861;50.268;8.648;2023-03-01T05:32:01;15.10;51.20
71994;DHT22;59861;50.268;8.648;2023-03-01T05:34:29;15.10;51.10
71994;DHT22;59861;50.268;8.648;2023-03-01T05:36:57;15.10;51.20
71994;DHT22;59861;50.268;8.648;2023-03-01T05:39:24;15.10;51.20
71994;DHT22;59861;50.268;8.648;2023-03-01T05:41:52;15.10;51.30
71994;DHT22;59861;50.268;8.648;2023-03-01T05:44:19;15.10;51.40
71994;DHT22;59861;50.268;8.648;2023-03-01T05:46:46;15.10;51.30
71994;DHT22;59861;50.268;8.648;2023-03-01T05:49:13;15.10;51.20
71994;DHT22;59861;50.268;8.648;2023-03-01T05:51:40;15.10;51.20
71994;DHT22;59861;50.268;8.648;2023-03-01T05:54:08;15.10;51.20
71994;DHT22;59861;50.268;8.648;2023-03-01T05:56:37;15.10;51.20
71994;DHT22;59861;50.268;8.648;2023-03-01T05:59:04;15.10;51.30
71994;DHT22;59861;50.268;8.648;2023-03-01T06:01:35;15.10;51.20
71994;DHT22;59861;50.268;8.648;2023-03-01T06:04:02;15.10;51.20
71994;DHT22;59861;50.268;8.648;2023-03-01T06:06:29;15.10;51.30
71994;DHT22;59861;50.268;8.648;2023-03-01T06:08:56;15.10;51.20
71994;DHT22;59861;50.268;8.648;2023-03-01T06:11:23;15.10;51.20
71994;DHT22;59861;50.268;8.648;2023-03-01T06:13:50;15.10;51.20
71994;DHT22;59861;50.268;8.648;2023-03-01T06:16:17;15.10;51.20
71994;DHT22;59861;50.268;8.648;2023-03-01T06:18:44;15.10;51.20
71994;DHT22;59861;50.268;8.648;2023-03-01T06:21:11;15.10;51.10
71994;DHT22;59861;50.268;8.648;2023-03-01T06:23:37;15.10;51.10
71994;DHT22;59861;50.268;8.648;2023-03-01T06:26:05;15.10;51.10
71994;DHT22;59861;50.268;8.648;2023-03-01T06:28:32;15.10;51.10
71994;DHT22;59861;50.268;8.648;2023-03-01T06:30:59;15.10;51.00
71994;DHT22;59861;50.268;8.648;2023-03-01T06:33:26;15.10;51.00
71994;DHT22;59861;50.268;8.648;2023-03-01T06:35:56;15.20;51.00
71994;DHT22;59861;50.268;8.648;2023-03-01T06:38:23;15.10;50.90
71994;DHT22;59861;50.268;8.648;2023-03-01T06:40:53;15.20;50.90
71994;DHT22;59861;50.268;8.648;2023-03-01T06:43:22;15.20;50.90
71994;DHT22;59861;50.268;8.648;2023-03-01T06:45:49;15.20;51.00
71994;DHT22;59861;50.268;8.648;2023-03-01T06:48:18;15.20;50.90
71994;DHT22;59861;50.268;8.648;2023-03-01T06:50:44;15.20;50.80
71994;DHT22;59861;50.268;8.648;2023-03-01T06:53:11;15.20;50.80
71994;DHT22;59861;50.268;8.648;2023-03-01T06:55:38;15.20;50.70
71994;DHT22;59861;50.268;8.648;2023-03-01T06:58:05;15.20;50.80
71994;DHT22;59861;50.268;8.648;2023-03-01T07:00:32;15.20;50.70
71994;DHT22;59861;50.268;8.648;2023-03-01T07:03:00;15.20;50.70
71994;DHT22;59861;50.268;8.648;2023-03-01T07:05:28;15.20;50.60
71994;DHT22;59861;50.268;8.648;2023-03-01T07:07:55;15.20;50.70
71994;DHT22;59861;50.268;8.648;2023-03-01T07:10:22;15.20;50.70
71994;DHT22;59861;50.268;8.648;2023-03-01T07:12:49;15.20;50.60
71994;DHT22;59861;50.268;8.648;2023-03-01T07:15:16;15.30;50.60
71994;DHT22;59861;50.268;8.648;2023-03-01T07:17:42;15.30;50.60
71994;DHT22;59861;50.268;8.648;2023-03-01T07:20:10;15.30;50.50
71994;DHT22;59861;50.268;8.648;2023-03-01T07:22:39;15.30;50.50
71994;DHT22;59861;50.268;8.648;2023-03-01T07:25:06;15.30;50.40
71994;DHT22;59861;50.268;8.648;2023-03-01T07:27:33;15.30;50.40
71994;DHT22;59861;50.268;8.648;2023-03-01T07:30:00;15.30;50.40
71994;DHT22;59861;50.268;8.648;2023-03-01T07:32:27;15.30;50.40
71994;DHT22;59861;50.268;8.648;2023-03-01T07:34:54;15.30;50.30
71994;DHT22;59861;50.268;8.648;2023-03-01T07:37:21;15.30;50.30
71994;DHT22;59861;50.268;8.648;2023-03-01T07:39:47;15.30;50.40
71994;DHT22;59861;50.268;8.648;2023-03-01T07:42:14;15.30;50.40
71994;DHT22;59861;50.268;8.648;2023-03-01T07:44:43;15.30;50.30
71994;DHT22;59861;50.268;8.648;2023-03-01T07:47:09;15.30;50.30
71994;DHT22;59861;50.268;8.648;2023-03-01T07:49:36;15.30;50.40
71994;DHT22;59861;50.268;8.648;2023-03-01T07:52:03;15.30;50.40
71994;DHT22;59861;50.268;8.648;2023-03-01T07:54:30;15.30;50.30
71994;DHT22;59861;50.268;8.648;2023-03-01T07:56:57;15.30;50.30
71994;DHT22;59861;50.268;8.648;2023-03-01T07:59:23;15.30;50.20
71994;DHT22;59861;50.268;8.648;2023-03-01T08:01:52;15.30;50.30
71994;DHT22;59861;50.268;8.648;2023-03-01T08:04:19;15.30;50.20
71994;DHT22;59861;50.268;8.648;2023-03-01T08:06:46;15.30;50.20
71994;DHT22;59861;50.268;8.648;2023-03-01T08:09:12;15.30;50.20
71994;DHT22;59861;50.268;8.648;2023-03-01T08:11:39;15.40;50.20
71994;DHT22;59861;50.268;8.648;2023-03-01T08:14:06;15.40;50.10
71994;DHT22;59861;50.268;8.648;2023-03-01T08:16:33;15.40;50.10
71994;DHT22;59861;50.268;8.648;2023-03-01T08:19:05;15.30;50.10
71994;DHT22;59861;50.268;8.648;2023-03-01T08:21:35;15.40;50.20
71994;DHT22;59861;50.268;8.648;2023-03-01T08:24:03;15.40;50.20
71994;DHT22;59861;50.268;8.648;2023-03-01T08:26:30;15.40;50.10
71994;DHT22;59861;50.268;8.648;2023-03-01T08:28:57;15.30;50.10
71994;DHT22;59861;50.268;8.648;2023-03-01T08:31:24;15.40;50.10
71994;DHT22;59861;50.268;8.648;2023-03-01T08:33:54;15.40;50.30
71994;DHT22;59861;50.268;8.648;2023-03-01T08:36:27;15.40;50.00
71994;DHT22;59861;50.268;8.648;2023-03-01T08:38:54;15.40;50.00
71994;DHT22;59861;50.268;8.648;2023-03-01T08:41:21;15.40;50.10
71994;DHT22;59861;50.268;8.648;2023-03-01T08:43:48;15.40;50.00
71994;DHT22;59861;50.268;8.648;2023-03-01T08:46:15;15.40;50.00
71994;DHT22;59861;50.268;8.648;2023-03-01T08:48:42;15.40;49.90
71994;DHT22;59861;50.268;8.648;2023-03-01T08:51:13;15.40;49.90
71994;DHT22;59861;50.268;8.648;2023-03-01T08:53:40;15.40;49.90
71994;DHT22;59861;50.268;8.648;2023-03-01T08:56:07;15.40;49.90
71994;DHT22;59861;50.268;8.648;2023-03-01T08:58:34;15.40;49.90
71994;DHT22;59861;50.268;8.648;2023-03-01T09:01:06;15.40;49.90
71994;DHT22;59861;50.268;8.648;2023-03-01T09:03:30;15.40;50.00
71994;DHT22;59861;50.268;8.648;2023-03-01T09:05:59;15.40;50.10
71994;DHT22;59861;50.268;8.648;2023-03-01T09:08:25;15.40;50.30
71994;DHT22;59861;50.268;8.648;2023-03-01T09:10:52;15.40;50.60
71994;DHT22;59861;50.268;8.648;2023-03-01T09:13:18;15.40;50.80
71994;DHT22;59861;50.268;8.648;2023-03-01T09:15:45;15.40;50.80
71994;DHT22;59861;50.268;8.648;2023-03-01T09:18:12;15.40;51.00
71994;DHT22;59861;50.268;8.648;2023-03-01T09:20:39;15.40;51.10
71994;DHT22;59861;50.268;8.648;2023-03-01T09:23:06;15.40;51.20
71994;DHT22;59861;50.268;8.648;2023-03-01T09:25:33;15.40;51.20
71994;DHT22;59861;50.268;8.648;2023-03-01T09:28:00;15.40;51.20
71994;DHT22;59861;50.268;8.648;2023-03-01T09:30:27;15.40;51.20
71994;DHT22;59861;50.268;8.648;2023-03-01T09:32:55;15.40;51.30
71994;DHT22;59861;50.268;8.648;2023-03-01T09:35:23;15.50;51.30
71994;DHT22;59861;50.268;8.648;2023-03-01T09:37:49;15.40;51.40
71994;DHT22;59861;50.268;8.648;2023-03-01T09:40:17;15.40;51.40
71994;DHT22;59861;50.268;8.648;2023-03-01T09:42:46;15.40;51.40
71994;DHT22;59861;50.268;8.648;2023-03-01T09:45:18;15.40;51.40
71994;DHT22;59861;50.268;8.648;2023-03-01T09:47:41;15.40;51.80
71994;DHT22;59861;50.268;8.648;2023-03-01T09:50:15;15.40;51.50
71994;DHT22;59861;50.268;8.648;2023-03-01T09:55:31;15.50;51.50
71994;DHT22;59861;50.268;8.648;2023-03-01T10:00:39;15.50;51.60
71994;DHT22;59861;50.268;8.648;2023-03-01T10:03:09;15.50;51.60
71994;DHT22;59861;50.268;8.648;2023-03-01T10:08:14;15.50;51.70
71994;DHT22;59861;50.268;8.648;2023-03-01T10:10:39;15.60;51.80
71994;DHT22;59861;50.268;8.648;2023-03-01T10:13:21;15.60;51.70
71994;DHT22;59861;50.268;8.648;2023-03-01T10:15:51;15.60;52.50
71994;DHT22;59861;50.268;8.648;2023-03-01T10:18:20;15.80;51.70
71994;DHT22;59861;50.268;8.648;2023-03-01T10:20:59;15.90;51.50
71994;DHT22;59861;50.268;8.648;2023-03-01T10:23:26;15.90;51.50
71994;DHT22;59861;50.268;8.648;2023-03-01T10:25:56;16.00;51.60
71994;DHT22;59861;50.268;8.648;2023-03-01T10:28:36;16.00;51.60
71994;DHT22;59861;50.268;8.648;2023-03-01T10:30:59;16.10;51.70
71994;DHT22;59861;50.268;8.648;2023-03-01T10:33:27;16.10;52.30
71994;DHT22;59861;50.268;8.648;2023-03-01T10:35:55;16.10;51.70
71994;DHT22;59861;50.268;8.648;2023-03-01T10:38:22;16.10;51.80
71994;DHT22;59861;50.268;8.648;2023-03-01T10:40:53;16.20;51.80
71994;DHT22;59861;50.268;8.648;2023-03-01T10:43:20;16.20;51.90
71994;DHT22;59861;50.268;8.648;2023-03-01T10:45:47;16.20;52.00
71994;DHT22;59861;50.268;8.648;2023-03-01T10:48:15;16.20;51.90
71994;DHT22;59861;50.268;8.648;2023-03-01T10:50:44;16.20;51.90
71994;DHT22;59861;50.268;8.648;2023-03-01T10:55:57;16.30;51.90
71994;DHT22;59861;50.268;8.648;2023-03-01T10:58:25;16.30;52.00
71994;DHT22;59861;50.268;8.648;2023-03-01T11:00:53;16.30;52.00
71994;DHT22;59861;50.268;8.648;2023-03-01T11:03:21;16.30;52.10
71994;DHT22;59861;50.268;8.648;2023-03-01T11:05:53;16.30;52.10
71994;DHT22;59861;50.268;8.648;2023-03-01T11:08:30;16.30;52.20
71994;DHT22;59861;50.268;8.648;2023-03-01T11:13:35;16.20;52.40
71994;DHT22;59861;50.268;8.648;2023-03-01T11:16:03;16.20;52.40
71994;DHT22;59861;50.268;8.648;2023-03-01T11:18:30;16.20;52.40
71994;DHT22;59861;50.268;8.648;2023-03-01T11:20:58;16.20;52.30
71994;DHT22;59861;50.268;8.648;2023-03-01T11:23:26;16.20;52.40
71994;DHT22;59861;50.268;8.648;2023-03-01T11:25:55;16.20;52.40
71994;DHT22;59861;50.268;8.648;2023-03-01T11:28:22;16.20;52.30
71994;DHT22;59861;50.268;8.648;2023-03-01T11:31:00;16.20;52.30
71994;DHT22;59861;50.268;8.648;2023-03-01T11:38:40;16.30;52.10
71994;DHT22;59861;50.268;8.648;2023-03-01T11:48:54;16.40;52.30
71994;DHT22;59861;50.268;8.648;2023-03-01T11:51:37;16.40;52.40
71994;DHT22;59861;50.268;8.648;2023-03-01T11:59:11;16.40;52.40
71994;DHT22;59861;50.268;8.648;2023-03-01T12:01:49;16.40;52.40
71994;DHT22;59861;50.268;8.648;2023-03-01T12:07:01;16.50;52.50
71994;DHT22;59861;50.268;8.648;2023-03-01T12:12:11;16.40;52.50
71994;DHT22;59861;50.268;8.648;2023-03-01T12:19:58;16.40;52.60
71994;DHT22;59861;50.268;8.648;2023-03-01T12:22:30;16.50;52.60
71994;DHT22;59861;50.268;8.648;2023-03-01T12:27:49;16.50;52.50
71994;DHT22;59861;50.268;8.648;2023-03-01T12:33:07;16.50;52.60
71994;DHT22;59861;50.268;8.648;2023-03-01T12:35:37;16.50;52.60
71994;DHT22;59861;50.268;8.648;2023-03-01T12:38:10;16.50;52.60
71994;DHT22;59861;50.268;8.648;2023-03-01T12:43:28;16.50;52.80
71994;DHT22;59861;50.268;8.648;2023-03-01T12:45:59;16.60;52.90
71994;DHT22;59861;50.268;8.648;2023-03-01T12:48:29;16.60;53.40
71994;DHT22;59861;50.268;8.648;2023-03-01T12:50:54;16.60;52.60
71994;DHT22;59861;50.268;8.648;2023-03-01T12:53:32;16.60;52.60
71994;DHT22;59861;50.268;8.648;2023-03-01T12:56:00;16.60;52.70
71994;DHT22;59861;50.268;8.648;2023-03-01T13:01:16;16.60;52.70
71994;DHT22;59861;50.268;8.648;2023-03-01T13:11:17;16.70;52.90
71994;DHT22;59861;50.268;8.648;2023-03-01T13:13:44;16.60;53.50
71994;DHT22;59861;50.268;8.648;2023-03-01T13:16:21;16.70;52.80
71994;DHT22;59861;50.268;8.648;2023-03-01T13:18:44;16.60;52.80
71994;DHT22;59861;50.268;8.648;2023-03-01T13:21:12;16.60;52.90
71994;DHT22;59861;50.268;8.648;2023-03-01T13:23:39;16.60;53.00
71994;DHT22;59861;50.268;8.648;2023-03-01T13:26:16;16.60;52.90
71994;DHT22;59861;50.268;8.648;2023-03-01T13:33:53;16.60;53.00
71994;DHT22;59861;50.268;8.648;2023-03-01T13:39:00;16.60;53.00
71994;DHT22;59861;50.268;8.648;2023-03-01T13:46:48;16.60;52.90
71994;DHT22;59861;50.268;8.648;2023-03-01T13:49:16;16.60;52.90
71994;DHT22;59861;50.268;8.648;2023-03-01T13:51:47;15.90;39.20
71994;DHT22;59861;50.268;8.648;2023-03-01T13:54:15;15.20;36.40
71994;DHT22;59861;50.268;8.648;2023-03-01T13:56:42;14.40;35.40
71994;DHT22;59861;50.268;8.648;2023-03-01T13:59:17;14.70;42.80
71994;DHT22;59861;50.268;8.648;2023-03-01T14:01:44;15.20;45.70
71994;DHT22;59861;50.268;8.648;2023-03-01T14:04:18;15.60;46.40
71994;DHT22;59861;50.268;8.648;2023-03-01T14:06:44;15.90;47.20
71994;DHT22;59861;50.268;8.648;2023-03-01T14:09:23;16.00;47.80
71994;DHT22;59861;50.268;8.648;2023-03-01T14:14:36;16.20;48.70
71994;DHT22;59861;50.268;8.648;2023-03-01T14:22:23;16.30;49.50
71994;DHT22;59861;50.268;8.648;2023-03-01T14:24:51;16.30;49.70
71994;DHT22;59861;50.268;8.648;2023-03-01T14:27:18;16.40;49.90
71994;DHT22;59861;50.268;8.648;2023-03-01T14:29:59;16.40;50.50
71994;DHT22;59861;50.268;8.648;2023-03-01T14:32:27;16.40;50.20
71994;DHT22;59861;50.268;8.648;2023-03-01T14:34:55;16.40;50.40
71994;DHT22;59861;50.268;8.648;2023-03-01T14:37:25;16.40;50.50
71994;DHT22;59861;50.268;8.648;2023-03-01T14:39:53;16.40;50.70
71994;DHT22;59861;50.268;8.648;2023-03-01T14:42:21;16.50;50.90
71994;DHT22;59861;50.268;8.648;2023-03-01T14:44:50;16.60;50.90
71994;DHT22;59861;50.268;8.648;2023-03-01T14:47:23;16.50;50.70
71994;DHT22;59861;50.268;8.648;2023-03-01T14:49:45;16.50;50.70
71994;DHT22;59861;50.268;8.648;2023-03-01T14:52:20;16.50;50.80
71994;DHT22;59861;50.268;8.648;2023-03-01T14:54:53;16.50;50.90
71994;DHT22;59861;50.268;8.648;2023-03-01T14:57:18;16.50;50.90
71994;DHT22;59861;50.268;8.648;2023-03-01T14:59:45;16.50;51.00
71994;DHT22;59861;50.268;8.648;2023-03-01T15:02:15;16.50;51.10
71994;DHT22;59861;50.268;8.648;2023-03-01T15:04:45;16.50;51.10
71994;DHT22;59861;50.268;8.648;2023-03-01T15:07:12;16.60;51.10
71994;DHT22;59861;50.268;8.648;2023-03-01T15:09:40;16.60;51.00
71994;DHT22;59861;50.268;8.648;2023-03-01T15:14:52;16.70;51.20
71994;DHT22;59861;50.268;8.648;2023-03-01T15:19:56;16.60;51.20
71994;DHT22;59861;50.268;8.648;2023-03-01T15:22:24;16.60;51.40
71994;DHT22;59861;50.268;8.648;2023-03-01T15:24:51;16.60;51.50
71994;DHT22;59861;50.268;8.648;2023-03-01T15:27:20;16.40;41.80
71994;DHT22;59861;50.268;8.648;2023-03-01T15:29:54;15.40;35.90
71994;DHT22;59861;50.268;8.648;2023-03-01T15:32:24;14.50;34.40
71994;DHT22;59861;50.268;8.648;2023-03-01T15:34:50;14.10;34.60
71994;DHT22;59861;50.268;8.648;2023-03-01T15:37:59;14.40;41.70
71994;DHT22;59861;50.268;8.648;2023-03-01T15:39:54;15.00;44.20
71994;DHT22;59861;50.268;8.648;2023-03-01T15:45:09;15.70;47.00
71994;DHT22;59861;50.268;8.648;2023-03-01T15:47:39;15.90;47.50
71994;DHT22;59861;50.268;8.648;2023-03-01T15:50:05;16.00;48.00
71994;DHT22;59861;50.268;8.648;2023-03-01T15:52:39;16.10;48.30
71994;DHT22;59861;50.268;8.648;2023-03-01T15:55:03;16.20;48.60
71994;DHT22;59861;50.268;8.648;2023-03-01T15:57:31;16.20;48.70
71994;DHT22;59861;50.268;8.648;2023-03-01T15:59:57;16.30;49.00
71994;DHT22;59861;50.268;8.648;2023-03-01T16:02:27;16.30;49.20
71994;DHT22;59861;50.268;8.648;2023-03-01T16:04:56;16.40;49.30
71994;DHT22;59861;50.268;8.648;2023-03-01T16:07:22;16.40;49.40
71994;DHT22;59861;50.268;8.648;2023-03-01T16:09:49;16.50;49.40
71994;DHT22;59861;50.268;8.648;2023-03-01T16:12:16;16.50;49.60
71994;DHT22;59861;50.268;8.648;2023-03-01T16:14:43;16.50;49.40
71994;DHT22;59861;50.268;8.648;2023-03-01T16:19:37;16.60;48.70
71994;DHT22;59861;50.268;8.648;2023-03-01T16:22:04;16.70;49.50
71994;DHT22;59861;50.268;8.648;2023-03-01T16:24:31;16.70;49.60
71994;DHT22;59861;50.268;8.648;2023-03-01T16:26:58;16.80;49.90
71994;DHT22;59861;50.268;8.648;2023-03-01T16:29:24;16.80;50.00
71994;DHT22;59861;50.268;8.648;2023-03-01T16:31:51;16.80;50.50
71994;DHT22;59861;50.268;8.648;2023-03-01T16:34:18;16.80;50.90
71994;DHT22;59861;50.268;8.648;2023-03-01T16:36:47;16.80;51.10
71994;DHT22;59861;50.268;8.648;2023-03-01T16:39:13;16.70;51.30
71994;DHT22;59861;50.268;8.648;2023-03-01T16:41:42;16.70;51.30
71994;DHT22;59861;50.268;8.648;2023-03-01T16:44:08;16.80;51.30
71994;DHT22;59861;50.268;8.648;2023-03-01T16:46:35;16.80;51.40
71994;DHT22;59861;50.268;8.648;2023-03-01T16:49:02;16.70;51.00
71994;DHT22;59861;50.268;8.648;2023-03-01T16:51:29;16.70;51.70
71994;DHT22;59861;50.268;8.648;2023-03-01T16:53:56;16.70;51.70
71994;DHT22;59861;50.268;8.648;2023-03-01T16:56:23;16.70;51.90
71994;DHT22;59861;50.268;8.648;2023-03-01T16:58:50;16.70;52.00
71994;DHT22;59861;50.268;8.648;2023-03-01T17:01:18;16.60;52.00
71994;DHT22;59861;50.268;8.648;2023-03-01T17:03:45;16.70;52.10
71994;DHT22;59861;50.268;8.648;2023-03-01T17:06:13;16.70;52.00
71994;DHT22;59861;50.268;8.648;2023-03-01T17:08:40;16.70;52.00
71994;DHT22;59861;50.268;8.648;2023-03-01T17:11:08;16.70;52.00